This is the latest recevied weather packets stored in our database for station/object IU7URP-30. If no packets are shown the sender has not sent any weather packets the latest 1 day(s).
| Time | Temp. | Humidity | Pressure | Rain* | Wind** | Luminosity | Snow |
|---|---|---|---|---|---|---|---|
| 1778076599 | 21.11° C | 46% | 1016.2 hPa | - | - | - | - |
| 1778073895 | 21.11° C | 45% | 1016.3 hPa | - | - | - | - |
| 1778072995 | 21.67° C | 44% | 1016.3 hPa | - | - | - | - |
| 1778070294 | 20° C | 50% | 1016.5 hPa | - | - | - | - |
| 1778068493 | 21.11° C | 48% | 1017.1 hPa | - | - | - | - |
| 1778067593 | 20.56° C | 50% | 1017 hPa | - | - | - | - |
| 1778064892 | 20° C | 51% | 1017.1 hPa | - | - | - | - |
| 1778062191 | 20° C | 53% | 1017.4 hPa | - | - | - | - |
| 1778059490 | 20.56° C | 53% | 1017.4 hPa | - | - | - | - |
| 1778057689 | 18.89° C | 55% | 1017.5 hPa | - | - | - | - |
| 1778056789 | 18.33° C | 55% | 1017.7 hPa | - | - | - | - |
| 1778055889 | 18.33° C | 55% | 1017.7 hPa | - | - | - | - |
| 1778054088 | 15° C | 61% | 1017.8 hPa | - | - | - | - |
| 1778053188 | 14.44° C | 59% | 1017.8 hPa | - | - | - | - |
| 1778052288 | 14.44° C | 59% | 1017.7 hPa | - | - | - | - |
| 1778051387 | 14.44° C | 60% | 1017.8 hPa | - | - | - | - |
| 1778050487 | 15° C | 58% | 1017.7 hPa | - | - | - | - |
| 1778049587 | 15° C | 58% | 1017.6 hPa | - | - | - | - |
| 1778045985 | 13.89° C | 58% | 1017.7 hPa | - | - | - | - |
| 1778044184 | 12.78° C | 63% | 1017.8 hPa | - | - | - | - |
| 1778043284 | 12.22° C | 65% | 1017.7 hPa | - | - | - | - |
| 1778042384 | 12.22° C | 65% | 1017.8 hPa | - | - | - | - |
| 1778039683 | 11.11° C | 71% | 1017.4 hPa | - | - | - | - |
| 1778037882 | 11.11° C | 69% | 1017.6 hPa | - | - | - | - |
* Rain since midnight (hover to see other rain measurements)
** Current wind speed in m/s (hover to see current wind gust speed)